createdAt,value
2019-02-02T00:00:41.001Z,-1.86
2019-02-02T00:01:41.330Z,-1.88
2019-02-02T00:02:41.801Z,-1.88
2019-02-02T00:03:42.273Z,-1.88
2019-02-02T00:04:42.747Z,-1.88
2019-02-02T00:05:43.217Z,-1.89
2019-02-02T00:06:43.687Z,-1.91
2019-02-02T00:07:44.210Z,-1.91
2019-02-02T00:08:44.633Z,-1.92
2019-02-02T00:09:45.104Z,-1.90
2019-02-02T00:10:45.572Z,-1.90
2019-02-02T00:11:46.044Z,-1.91
2019-02-02T00:12:46.517Z,-1.92
2019-02-02T00:13:46.993Z,-1.92
2019-02-02T00:14:47.460Z,-1.92
2019-02-02T00:15:47.932Z,-1.92
2019-02-02T00:16:48.403Z,-1.93
2019-02-02T00:17:48.879Z,-1.93
2019-02-02T00:18:49.348Z,-1.94
2019-02-02T00:19:49.821Z,-1.94
2019-02-02T00:20:50.291Z,-1.94
2019-02-02T00:21:50.763Z,-1.94
2019-02-02T00:22:51.292Z,-1.94
2019-02-02T00:23:51.707Z,-1.95
2019-02-02T00:24:52.182Z,-1.94
2019-02-02T00:25:52.649Z,-1.94
2019-02-02T00:26:53.122Z,-1.94
2019-02-02T00:27:53.896Z,-1.95
2019-02-02T00:28:54.068Z,-1.96
2019-02-02T00:29:54.535Z,-1.96
2019-02-02T00:30:55.008Z,-1.96
2019-02-02T00:31:55.481Z,-1.97
2019-02-02T00:32:55.953Z,-1.96
2019-02-02T00:33:56.432Z,-1.96
2019-02-02T00:34:56.897Z,-1.98
2019-02-02T00:35:57.374Z,-1.98
2019-02-02T00:36:59.326Z,-1.98
2019-02-02T00:37:58.318Z,-1.98
2019-02-02T00:38:58.784Z,-1.98
2019-02-02T00:39:59.466Z,-1.99
2019-02-02T00:40:59.728Z,-1.99
2019-02-02T00:42:00.201Z,-1.98
2019-02-02T00:43:00.722Z,-2.00
2019-02-02T00:44:01.144Z,-2.00
2019-02-02T00:45:01.616Z,-2.00
2019-02-02T00:46:02.095Z,-2.00
2019-02-02T00:47:02.563Z,-2.01
2019-02-02T00:48:03.093Z,-2.02
2019-02-02T00:49:03.506Z,-2.00
2019-02-02T00:50:03.978Z,-2.02
2019-02-02T00:51:04.447Z,-2.02
2019-02-02T00:52:04.918Z,-2.04
2019-02-02T00:53:05.390Z,-2.02
2019-02-02T00:54:05.886Z,-2.03
2019-02-02T00:55:06.336Z,-2.02
2019-02-02T00:56:06.807Z,-2.03
2019-02-02T00:57:07.279Z,-2.04
2019-02-02T00:58:07.753Z,-2.04
2019-02-02T00:59:08.225Z,-2.05
2019-02-02T01:00:08.696Z,-2.04
2019-02-02T01:01:09.167Z,-2.06
2019-02-02T01:02:09.639Z,-2.04
2019-02-02T01:03:10.111Z,-2.06
2019-02-02T01:04:10.621Z,-2.04
2019-02-02T01:05:11.054Z,-2.07
2019-02-02T01:06:11.530Z,-2.06
2019-02-02T01:07:12.000Z,-2.06
2019-02-02T01:08:12.471Z,-2.07
2019-02-02T01:09:12.945Z,-2.06
2019-02-02T01:10:13.417Z,-2.07
2019-02-02T01:11:13.889Z,-2.07
2019-02-02T01:12:14.361Z,-2.07
2019-02-02T01:13:15.034Z,-2.08
2019-02-02T01:14:15.306Z,-2.08
2019-02-02T01:15:15.778Z,-2.10
2019-02-02T01:16:16.250Z,-2.08
2019-02-02T01:17:16.721Z,-2.08
2019-02-02T01:18:17.194Z,-2.10
2019-02-02T01:19:17.667Z,-2.12
2019-02-02T01:20:18.139Z,-2.10
2019-02-02T01:21:18.609Z,-2.10
2019-02-02T01:22:19.082Z,-2.10
2019-02-02T01:23:19.603Z,-2.12
2019-02-02T01:24:20.024Z,-2.12
2019-02-02T01:25:20.497Z,-2.12
2019-02-02T01:26:20.970Z,-2.12
2019-02-02T01:27:21.441Z,-2.11
2019-02-02T01:28:21.914Z,-2.12
2019-02-02T01:29:22.390Z,-2.12
2019-02-02T01:30:22.860Z,-2.12
2019-02-02T01:31:23.330Z,-2.13
2019-02-02T01:32:23.804Z,-2.14
2019-02-02T01:33:24.275Z,-2.13
2019-02-02T01:34:24.864Z,-2.14
2019-02-02T01:35:25.218Z,-2.14
2019-02-02T01:36:25.893Z,-2.14
2019-02-02T01:37:26.163Z,-2.14
2019-02-02T01:38:26.691Z,-2.14
2019-02-02T01:39:27.106Z,-2.15
2019-02-02T01:40:27.589Z,-2.13
2019-02-02T01:41:28.053Z,-2.15
2019-02-02T01:42:28.525Z,-2.15
2019-02-02T01:43:28.999Z,-2.16
2019-02-02T01:44:29.467Z,-2.16
2019-02-02T01:45:29.942Z,-2.16
2019-02-02T01:46:30.413Z,-2.16
2019-02-02T01:47:30.886Z,-2.16
2019-02-02T01:48:31.355Z,-2.16
2019-02-02T01:49:31.836Z,-2.17
2019-02-02T01:50:32.302Z,-2.16
2019-02-02T01:51:32.773Z,-2.18
2019-02-02T01:52:33.248Z,-2.18
2019-02-02T01:53:33.719Z,-2.16
2019-02-02T01:54:34.192Z,-2.17
2019-02-02T01:55:34.665Z,-2.17
2019-02-02T01:56:35.137Z,-2.16
2019-02-02T01:57:35.608Z,-2.18
2019-02-02T01:58:36.079Z,-2.18
2019-02-02T01:59:36.553Z,-2.18
2019-02-02T02:00:37.027Z,-2.16
2019-02-02T02:01:37.495Z,-2.18
2019-02-02T02:02:37.969Z,-2.18
2019-02-02T02:03:38.443Z,-2.16
2019-02-02T02:04:38.914Z,-2.17
2019-02-02T02:05:39.386Z,-2.18
2019-02-02T02:06:39.860Z,-2.17
2019-02-02T02:07:40.331Z,-2.18
2019-02-02T02:08:40.802Z,-2.19
2019-02-02T02:09:41.282Z,-2.18
2019-02-02T02:10:41.753Z,-2.16
2019-02-02T02:11:42.218Z,-2.18
2019-02-02T02:12:42.691Z,-2.18
2019-02-02T02:13:43.315Z,-2.17
2019-02-02T02:14:43.637Z,-2.16
2019-02-02T02:15:44.107Z,-2.16
2019-02-02T02:16:44.580Z,-2.16
2019-02-02T02:17:45.052Z,-2.16
2019-02-02T02:18:45.527Z,-2.17
2019-02-02T02:19:45.998Z,-2.18
2019-02-02T02:20:46.473Z,-2.18
2019-02-02T02:21:46.941Z,-2.16
2019-02-02T02:22:47.414Z,-2.16
2019-02-02T02:23:47.885Z,-2.16
2019-02-02T02:24:48.484Z,-2.16
2019-02-02T02:25:48.833Z,-2.16
2019-02-02T02:26:49.303Z,-2.16
2019-02-02T02:27:49.776Z,-2.15
2019-02-02T02:28:50.302Z,-2.14
2019-02-02T02:29:50.721Z,-2.15
2019-02-02T02:30:51.194Z,-2.14
2019-02-02T02:31:51.666Z,-2.15
2019-02-02T02:32:52.136Z,-2.16
2019-02-02T02:33:52.611Z,-2.15
2019-02-02T02:34:53.082Z,-2.14
2019-02-02T02:35:53.558Z,-2.16
2019-02-02T02:36:54.028Z,-2.14
2019-02-02T02:37:54.501Z,-2.15
2019-02-02T02:38:55.010Z,-2.14
2019-02-02T02:39:55.443Z,-2.14
2019-02-02T02:40:55.919Z,-2.13
2019-02-02T02:41:56.389Z,-2.12
2019-02-02T02:42:56.864Z,-2.13
2019-02-02T02:43:57.334Z,-2.12
2019-02-02T02:44:57.807Z,-2.11
2019-02-02T02:45:58.289Z,-2.12
2019-02-02T02:46:58.753Z,-2.13
2019-02-02T02:47:59.253Z,-2.12
2019-02-02T02:48:59.698Z,-2.14
2019-02-02T02:50:00.201Z,-2.12
2019-02-02T02:51:00.643Z,-2.12
2019-02-02T02:52:01.113Z,-2.11
2019-02-02T02:53:01.585Z,-2.11
2019-02-02T02:54:02.109Z,-2.10
2019-02-02T02:55:02.530Z,-2.10
2019-02-02T02:56:03.005Z,-2.10
2019-02-02T02:57:03.477Z,-2.10
2019-02-02T02:58:03.947Z,-2.10
2019-02-02T02:59:04.419Z,-2.09
2019-02-02T03:00:04.892Z,-2.09
2019-02-02T03:01:05.365Z,-2.07
2019-02-02T03:02:05.836Z,-2.08
2019-02-02T03:03:06.307Z,-2.08
2019-02-02T03:04:06.780Z,-2.09
2019-02-02T03:05:07.254Z,-2.08
2019-02-02T03:06:07.723Z,-2.08
2019-02-02T03:07:08.194Z,-2.08
2019-02-02T03:08:08.669Z,-2.08
2019-02-02T03:09:09.192Z,-2.06
2019-02-02T03:10:09.606Z,-2.07
2019-02-02T03:11:10.076Z,-2.06
2019-02-02T03:12:10.545Z,-2.08
2019-02-02T03:13:11.014Z,-2.06
2019-02-02T03:14:11.489Z,-2.06
2019-02-02T03:15:11.958Z,-2.06
2019-02-02T03:16:12.430Z,-2.04
2019-02-02T03:17:12.892Z,-2.05
2019-02-02T03:18:13.360Z,-2.08
2019-02-02T03:19:13.841Z,-2.05
2019-02-02T03:20:14.305Z,-2.05
2019-02-02T03:21:14.766Z,-2.05
2019-02-02T03:22:15.241Z,-2.04
2019-02-02T03:23:15.724Z,-2.04
2019-02-02T03:24:16.171Z,-2.06
2019-02-02T03:25:16.642Z,-2.04
2019-02-02T03:26:17.107Z,-2.06
2019-02-02T03:27:17.578Z,-2.04
2019-02-02T03:28:18.047Z,-2.04
2019-02-02T03:29:18.562Z,-2.03
2019-02-02T03:30:19.028Z,-2.02
2019-02-02T03:31:19.451Z,-2.04
2019-02-02T03:32:20.022Z,-2.04
2019-02-02T03:33:20.386Z,-2.04
2019-02-02T03:34:20.852Z,-2.04
2019-02-02T03:35:21.322Z,-2.04
2019-02-02T03:36:21.789Z,-2.02
2019-02-02T03:37:22.259Z,-2.02
2019-02-02T03:38:22.727Z,-2.02
2019-02-02T03:39:23.398Z,-2.03
2019-02-02T03:40:23.667Z,-2.04
2019-02-02T03:41:24.133Z,-2.04
2019-02-02T03:42:24.601Z,-2.04
2019-02-02T03:43:25.068Z,-2.04
2019-02-02T03:44:25.535Z,-2.04
2019-02-02T03:45:26.013Z,-2.04
2019-02-02T03:46:26.476Z,-2.04
2019-02-02T03:47:26.942Z,-2.04
2019-02-02T03:48:27.411Z,-2.05
2019-02-02T03:49:27.882Z,-2.04
2019-02-02T03:50:28.352Z,-2.05
2019-02-02T03:51:28.827Z,-2.04
2019-02-02T03:52:29.293Z,-2.04
2019-02-02T03:53:29.761Z,-2.04
2019-02-02T03:54:30.233Z,-2.05
2019-02-02T03:55:30.696Z,-2.04
2019-02-02T03:56:31.166Z,-2.04
2019-02-02T03:57:31.634Z,-2.04
2019-02-02T03:58:32.104Z,-2.04
2019-02-02T03:59:32.573Z,-2.05
2019-02-02T04:00:33.043Z,-2.04
2019-02-02T04:01:33.514Z,-2.04
2019-02-02T04:02:33.982Z,-2.05
2019-02-02T04:03:34.460Z,-2.05
2019-02-02T04:04:34.973Z,-2.04
2019-02-02T04:05:35.392Z,-2.04
2019-02-02T04:06:35.862Z,-2.04
2019-02-02T04:07:36.332Z,-2.04
2019-02-02T04:08:36.803Z,-2.04
2019-02-02T04:09:37.274Z,-2.04
2019-02-02T04:10:37.743Z,-2.04
2019-02-02T04:11:38.216Z,-2.04
2019-02-02T04:12:38.684Z,-2.04
2019-02-02T04:13:39.162Z,-2.06
2019-02-02T04:14:39.625Z,-2.04
2019-02-02T04:15:40.094Z,-2.04
2019-02-02T04:16:40.564Z,-2.04
2019-02-02T04:17:41.036Z,-2.04
2019-02-02T04:18:41.509Z,-2.05
2019-02-02T04:19:41.976Z,-2.04
2019-02-02T04:20:42.447Z,-2.04
2019-02-02T04:21:42.918Z,-2.03
2019-02-02T04:22:43.390Z,-2.05
2019-02-02T04:23:43.859Z,-2.04
2019-02-02T04:24:44.380Z,-2.04
2019-02-02T04:25:44.800Z,-2.06
2019-02-02T04:26:45.271Z,-2.04
2019-02-02T04:27:45.742Z,-2.06
2019-02-02T04:28:46.212Z,-2.06
2019-02-02T04:29:46.684Z,-2.05
2019-02-02T04:30:47.156Z,-2.04
2019-02-02T04:31:47.628Z,-2.05
2019-02-02T04:32:48.103Z,-2.04
2019-02-02T04:33:48.571Z,-2.04
2019-02-02T04:34:49.039Z,-2.04
2019-02-02T04:35:49.511Z,-2.05
2019-02-02T04:36:49.981Z,-2.05
2019-02-02T04:37:50.453Z,-2.06
2019-02-02T04:38:50.924Z,-2.04
2019-02-02T04:39:51.448Z,-2.06
2019-02-02T04:40:51.867Z,-2.04
2019-02-02T04:41:52.338Z,-2.04
2019-02-02T04:42:52.811Z,-2.05
2019-02-02T04:43:53.281Z,-2.04
2019-02-02T04:44:53.752Z,-2.06
2019-02-02T04:45:54.225Z,-2.06
2019-02-02T04:46:54.701Z,-2.04
2019-02-02T04:47:55.169Z,-2.06
2019-02-02T04:48:55.639Z,-2.06
2019-02-02T04:49:56.110Z,-2.06
2019-02-02T04:50:56.581Z,-2.05
2019-02-02T04:51:57.062Z,-2.05
2019-02-02T04:52:57.524Z,-2.05
2019-02-02T04:53:58.251Z,-2.04
2019-02-02T04:54:58.467Z,-2.06
2019-02-02T04:55:58.941Z,-2.05
2019-02-02T04:56:59.414Z,-2.05
2019-02-02T04:57:59.882Z,-2.06
2019-02-02T04:59:00.484Z,-2.06
2019-02-02T05:00:00.826Z,-2.06
2019-02-02T05:01:01.299Z,-2.06
2019-02-02T05:02:01.769Z,-2.06
2019-02-02T05:03:02.242Z,-2.06
2019-02-02T05:04:02.714Z,-2.06
2019-02-02T05:05:03.189Z,-2.04
2019-02-02T05:06:03.656Z,-2.06
2019-02-02T05:07:04.129Z,-2.06
2019-02-02T05:08:04.602Z,-2.04
2019-02-02T05:09:05.074Z,-2.06
2019-02-02T05:10:05.544Z,-2.06
2019-02-02T05:11:06.017Z,-2.06
2019-02-02T05:12:06.489Z,-2.06
2019-02-02T05:13:06.959Z,-2.04
2019-02-02T05:14:07.430Z,-2.06
2019-02-02T05:15:07.954Z,-2.06
2019-02-02T05:16:08.378Z,-2.06
2019-02-02T05:17:08.846Z,-2.08
2019-02-02T05:18:09.318Z,-2.06
2019-02-02T05:19:09.791Z,-2.06
2019-02-02T05:20:10.263Z,-2.04
2019-02-02T05:21:10.735Z,-2.06
2019-02-02T05:22:11.207Z,-2.04
2019-02-02T05:23:11.678Z,-2.06
2019-02-02T05:24:12.152Z,-2.06
2019-02-02T05:25:12.621Z,-2.06
2019-02-02T05:26:13.095Z,-2.06
2019-02-02T05:27:13.569Z,-2.06
2019-02-02T05:28:14.040Z,-2.06
2019-02-02T05:29:14.510Z,-2.05
2019-02-02T05:30:14.983Z,-2.05
2019-02-02T05:31:15.465Z,-2.04
2019-02-02T05:32:15.927Z,-2.06
2019-02-02T05:33:16.398Z,-2.06
2019-02-02T05:34:16.874Z,-2.06
2019-02-02T05:35:17.445Z,-2.06
2019-02-02T05:36:17.816Z,-2.06
2019-02-02T05:37:18.287Z,-2.06
2019-02-02T05:38:18.761Z,-2.04
2019-02-02T05:39:19.232Z,-2.06
2019-02-02T05:40:19.703Z,-2.06
2019-02-02T05:41:20.378Z,-2.06
2019-02-02T05:42:20.646Z,-2.05
2019-02-02T05:43:21.119Z,-2.06
2019-02-02T05:44:21.593Z,-2.06
2019-02-02T05:45:22.064Z,-2.06
2019-02-02T05:46:22.540Z,-2.08
2019-02-02T05:47:23.010Z,-2.04
2019-02-02T05:48:23.486Z,-2.07
2019-02-02T05:49:23.952Z,-2.06
2019-02-02T05:50:24.424Z,-2.06
2019-02-02T05:51:24.898Z,-2.05
2019-02-02T05:52:25.369Z,-2.05
2019-02-02T05:53:25.841Z,-2.04
2019-02-02T05:54:26.312Z,-2.04
2019-02-02T05:55:26.838Z,-2.06
2019-02-02T05:56:27.360Z,-2.05
2019-02-02T05:57:27.730Z,-2.06
2019-02-02T05:58:28.207Z,-2.06
2019-02-02T05:59:28.678Z,-2.05
2019-02-02T06:00:29.146Z,-2.06
2019-02-02T06:01:30.167Z,-2.06
2019-02-02T06:02:30.089Z,-2.06
2019-02-02T06:03:30.564Z,-2.06
2019-02-02T06:04:31.035Z,-2.06
2019-02-02T06:05:31.507Z,-2.06
2019-02-02T06:06:31.978Z,-2.06
2019-02-02T06:07:32.451Z,-2.06
2019-02-02T06:08:32.924Z,-2.06
2019-02-02T06:09:33.397Z,-2.06
2019-02-02T06:10:33.918Z,-2.06
2019-02-02T06:11:34.341Z,-2.06
2019-02-02T06:12:34.813Z,-2.06
2019-02-02T06:13:35.283Z,-2.04
2019-02-02T06:14:35.757Z,-2.06
2019-02-02T06:15:36.228Z,-2.06
2019-02-02T06:16:36.701Z,-2.05
2019-02-02T06:17:37.172Z,-2.06
2019-02-02T06:18:37.645Z,-2.04
2019-02-02T06:19:38.118Z,-2.06
2019-02-02T06:20:38.593Z,-2.06
2019-02-02T06:21:39.061Z,-2.06
2019-02-02T06:22:39.535Z,-2.06
2019-02-02T06:23:40.006Z,-2.06
2019-02-02T06:24:40.489Z,-2.06
2019-02-02T06:25:40.955Z,-2.05
2019-02-02T06:26:41.422Z,-2.06
2019-02-02T06:27:41.897Z,-2.06
2019-02-02T06:28:42.368Z,-2.06
2019-02-02T06:29:42.843Z,-2.07
2019-02-02T06:30:43.362Z,-2.08
2019-02-02T06:31:43.805Z,-2.06
2019-02-02T06:32:44.258Z,-2.06
2019-02-02T06:33:44.728Z,-2.06
2019-02-02T06:34:45.200Z,-2.07
2019-02-02T06:35:45.672Z,-2.06
2019-02-02T06:36:46.144Z,-2.06
2019-02-02T06:37:46.616Z,-2.07
2019-02-02T06:38:47.089Z,-2.06
2019-02-02T06:39:47.563Z,-2.08
2019-02-02T06:40:48.035Z,-2.06
2019-02-02T06:41:48.506Z,-2.06
2019-02-02T06:42:48.979Z,-2.06
2019-02-02T06:43:49.452Z,-2.08
2019-02-02T06:44:49.926Z,-2.08
2019-02-02T06:45:50.395Z,-2.06
2019-02-02T06:46:50.866Z,-2.05
2019-02-02T06:47:51.339Z,-2.06
2019-02-02T06:48:51.813Z,-2.06
2019-02-02T06:49:52.283Z,-2.06
2019-02-02T06:50:52.766Z,-2.06
2019-02-02T06:51:53.227Z,-2.06
2019-02-02T06:52:53.700Z,-2.06
2019-02-02T06:53:54.285Z,-2.06
2019-02-02T06:54:54.645Z,-2.06
2019-02-02T06:55:55.115Z,-2.06
2019-02-02T06:56:55.587Z,-2.06
2019-02-02T06:57:56.060Z,-2.06
2019-02-02T06:58:56.532Z,-2.06
2019-02-02T06:59:57.004Z,-2.06
2019-02-02T07:00:57.481Z,-2.06
2019-02-02T07:01:57.948Z,-2.08
2019-02-02T07:02:58.421Z,-2.07
2019-02-02T07:03:58.915Z,-2.07
2019-02-02T07:04:59.365Z,-2.06
2019-02-02T07:05:59.887Z,-2.06
2019-02-02T07:07:00.310Z,-2.06
2019-02-02T07:08:00.782Z,-2.08
2019-02-02T07:09:01.256Z,-2.07
2019-02-02T07:10:01.928Z,-2.07
2019-02-02T07:11:02.201Z,-2.06
2019-02-02T07:12:02.670Z,-2.07
2019-02-02T07:13:03.144Z,-2.07
2019-02-02T07:14:03.616Z,-2.07
2019-02-02T07:15:04.087Z,-2.08
2019-02-02T07:16:04.560Z,-2.08
2019-02-02T07:17:05.032Z,-2.06
2019-02-02T07:18:05.505Z,-2.07
2019-02-02T07:19:05.977Z,-2.08
2019-02-02T07:20:06.487Z,-2.09
2019-02-02T07:21:06.923Z,-2.08
2019-02-02T07:22:07.392Z,-2.08
2019-02-02T07:23:07.866Z,-2.08
2019-02-02T07:24:08.342Z,-2.07
2019-02-02T07:25:08.814Z,-2.08
2019-02-02T07:26:09.283Z,-2.08
2019-02-02T07:27:09.754Z,-2.08
2019-02-02T07:28:10.227Z,-2.09
2019-02-02T07:29:10.700Z,-2.08
2019-02-02T07:30:11.169Z,-2.09
2019-02-02T07:31:11.642Z,-2.08
2019-02-02T07:32:12.122Z,-2.08
2019-02-02T07:33:12.587Z,-2.09
2019-02-02T07:34:13.058Z,-2.08
2019-02-02T07:35:13.534Z,-2.08
2019-02-02T07:36:14.004Z,-2.09
2019-02-02T07:37:14.477Z,-2.09
2019-02-02T07:38:14.953Z,-2.09
2019-02-02T07:39:15.421Z,-2.08
2019-02-02T07:40:15.892Z,-2.08
2019-02-02T07:41:16.368Z,-2.08
2019-02-02T07:42:17.041Z,-2.08
2019-02-02T07:43:17.310Z,-2.09
2019-02-02T07:44:17.786Z,-2.08
2019-02-02T07:45:18.255Z,-2.07
2019-02-02T07:46:18.725Z,-2.08
2019-02-02T07:47:19.197Z,-2.07
2019-02-02T07:48:19.669Z,-2.08
2019-02-02T07:49:20.146Z,-2.09
2019-02-02T07:50:20.615Z,-2.08
2019-02-02T07:51:21.087Z,-2.08
2019-02-02T07:52:21.560Z,-2.09
2019-02-02T07:53:22.031Z,-2.08
2019-02-02T07:54:22.505Z,-2.10
2019-02-02T07:55:22.974Z,-2.08
2019-02-02T07:56:23.448Z,-2.08
2019-02-02T07:57:23.920Z,-2.08
2019-02-02T07:58:24.396Z,-2.08
2019-02-02T07:59:24.868Z,-2.08
2019-02-02T08:00:25.336Z,-2.06
2019-02-02T08:01:25.809Z,-2.08
2019-02-02T08:02:26.279Z,-2.06
2019-02-02T08:03:26.755Z,-2.06
2019-02-02T08:04:27.227Z,-2.08
2019-02-02T08:05:27.697Z,-2.08
2019-02-02T08:06:28.218Z,-2.06
2019-02-02T08:07:28.641Z,-2.06
2019-02-02T08:08:29.113Z,-2.08
2019-02-02T08:09:29.586Z,-2.06
2019-02-02T08:10:30.057Z,-2.06
2019-02-02T08:11:30.528Z,-2.06
2019-02-02T08:12:31.003Z,-2.07
2019-02-02T08:13:31.473Z,-2.05
2019-02-02T08:14:31.945Z,-2.05
2019-02-02T08:15:32.418Z,-2.06
2019-02-02T08:16:32.889Z,-2.06
2019-02-02T08:17:33.363Z,-2.07
2019-02-02T08:18:33.834Z,-2.04
2019-02-02T08:19:34.307Z,-2.04
2019-02-02T08:20:34.781Z,-2.06
2019-02-02T08:21:35.299Z,-2.06
2019-02-02T08:22:35.720Z,-2.06
2019-02-02T08:23:36.194Z,-2.05
2019-02-02T08:24:38.725Z,-2.06
2019-02-02T08:25:37.159Z,-2.04
2019-02-02T08:26:37.659Z,-2.04
2019-02-02T08:27:38.081Z,-2.06
2019-02-02T08:28:38.560Z,-2.04
2019-02-02T08:29:39.027Z,-2.05
2019-02-02T08:30:39.498Z,-2.04
2019-02-02T08:31:40.022Z,-2.03
2019-02-02T08:32:40.442Z,-2.04
2019-02-02T08:33:40.913Z,-2.04
2019-02-02T08:34:41.390Z,-2.04
2019-02-02T08:35:41.860Z,-2.04
2019-02-02T08:36:42.332Z,-2.04
2019-02-02T08:37:42.802Z,-2.06
2019-02-02T08:38:43.273Z,-2.04
2019-02-02T08:39:43.745Z,-2.03
2019-02-02T08:40:44.217Z,-2.04
2019-02-02T08:41:44.690Z,-2.04
2019-02-02T08:42:45.161Z,-2.04
2019-02-02T08:43:45.632Z,-2.04
2019-02-02T08:44:46.106Z,-2.04
2019-02-02T08:45:46.581Z,-2.04
2019-02-02T08:46:47.102Z,-2.02
2019-02-02T08:47:47.550Z,-2.04
2019-02-02T08:48:47.993Z,-2.04
2019-02-02T08:49:48.471Z,-2.06
2019-02-02T08:50:48.937Z,-2.05
2019-02-02T08:51:49.410Z,-2.03
2019-02-02T08:52:49.889Z,-2.04
2019-02-02T08:53:50.357Z,-2.04
2019-02-02T08:54:50.826Z,-2.04
2019-02-02T08:55:52.056Z,-2.04
2019-02-02T08:56:51.771Z,-2.04
2019-02-02T08:57:52.258Z,-2.04
2019-02-02T08:58:52.715Z,-2.04
2019-02-02T08:59:53.187Z,-2.05
2019-02-02T09:01:03.851Z,-2.04
2019-02-02T09:01:54.181Z,-2.04
2019-02-02T09:02:54.603Z,-2.04
2019-02-02T09:03:55.081Z,-2.05
2019-02-02T09:04:55.547Z,-2.04
2019-02-02T09:05:56.028Z,-2.04
2019-02-02T09:06:56.489Z,-2.06
2019-02-02T09:07:56.962Z,-2.06
2019-02-02T09:08:57.433Z,-2.06
2019-02-02T09:09:57.911Z,-2.05
2019-02-02T09:10:58.379Z,-2.06
2019-02-02T09:11:58.857Z,-2.05
2019-02-02T09:12:59.320Z,-2.04
2019-02-02T09:13:59.817Z,-2.04
2019-02-02T09:16:00.737Z,-2.05
2019-02-02T09:17:01.251Z,-2.04
2019-02-02T09:18:01.683Z,-2.05
2019-02-02T09:19:02.157Z,-2.05
2019-02-02T09:20:02.627Z,-2.04
2019-02-02T09:21:03.113Z,-2.05
2019-02-02T09:22:03.963Z,-2.04
2019-02-02T09:23:06.608Z,-2.06
2019-02-02T09:24:04.513Z,-2.04
2019-02-02T09:25:04.991Z,-2.06
2019-02-02T09:26:05.458Z,-2.06
2019-02-02T09:27:05.930Z,-2.06
2019-02-02T09:28:06.402Z,-2.05
2019-02-02T09:29:06.873Z,-2.07
2019-02-02T09:30:07.345Z,-2.06
2019-02-02T09:31:15.496Z,-2.08
2019-02-02T09:32:08.291Z,-2.06
2019-02-02T09:33:08.762Z,-2.06
2019-02-02T09:34:09.233Z,-2.06
2019-02-02T09:35:09.705Z,-2.06
2019-02-02T09:36:10.178Z,-2.06
2019-02-02T09:37:10.699Z,-2.06
2019-02-02T09:38:12.207Z,-2.07
2019-02-02T09:39:11.598Z,-2.04
2019-02-02T09:40:12.112Z,-2.06
2019-02-02T09:41:12.538Z,-2.06
2019-02-02T09:42:13.010Z,-2.06
2019-02-02T09:43:13.479Z,-2.07
2019-02-02T09:44:13.954Z,-2.06
2019-02-02T09:45:14.424Z,-2.08
2019-02-02T09:46:14.897Z,-2.08
2019-02-02T09:47:15.366Z,-2.07
2019-02-02T09:48:15.839Z,-2.06
2019-02-02T09:49:16.312Z,-2.06
2019-02-02T09:50:16.786Z,-2.06
2019-02-02T09:51:17.255Z,-2.08
2019-02-02T09:52:17.733Z,-2.06
2019-02-02T09:53:18.200Z,-2.08
2019-02-02T09:54:26.433Z,-2.06
2019-02-02T09:55:19.145Z,-2.06
2019-02-02T09:56:19.615Z,-2.07
2019-02-02T09:57:20.141Z,-2.07
2019-02-02T09:58:20.560Z,-2.07
2019-02-02T09:59:21.048Z,-2.08
2019-02-02T10:00:21.505Z,-2.07
2019-02-02T10:01:27.804Z,-2.06
2019-02-02T10:02:22.500Z,-2.08
2019-02-02T10:03:22.921Z,-2.07
2019-02-02T10:04:23.391Z,-2.06
2019-02-02T10:05:23.865Z,-2.06
2019-02-02T10:06:24.338Z,-2.08
2019-02-02T10:07:24.808Z,-2.06
2019-02-02T10:08:28.085Z,-2.06
2019-02-02T10:09:25.752Z,-2.08
2019-02-02T10:10:26.227Z,-2.06
2019-02-02T10:11:26.697Z,-2.08
2019-02-02T10:12:27.174Z,-2.08
2019-02-02T10:13:27.640Z,-2.08
2019-02-02T10:14:28.130Z,-2.08
2019-02-02T10:15:28.593Z,-2.07
2019-02-02T10:16:29.055Z,-2.08
2019-02-02T10:17:29.577Z,-2.08
2019-02-02T10:18:29.999Z,-2.06
2019-02-02T10:19:30.471Z,-2.06
2019-02-02T10:20:30.944Z,-2.08
2019-02-02T10:21:31.415Z,-2.08
2019-02-02T10:22:31.887Z,-2.08
2019-02-02T10:23:32.363Z,-2.08
2019-02-02T10:24:32.832Z,-2.09
2019-02-02T10:25:33.304Z,-2.06
2019-02-02T10:26:33.780Z,-2.08
2019-02-02T10:27:34.248Z,-2.06
2019-02-02T10:28:34.719Z,-2.08
2019-02-02T10:29:35.194Z,-2.08
2019-02-02T10:30:35.663Z,-2.10
2019-02-02T10:31:39.789Z,-2.08
2019-02-02T10:32:36.606Z,-2.08
2019-02-02T10:33:37.077Z,-2.07
2019-02-02T10:34:37.553Z,-2.10
2019-02-02T10:35:38.023Z,-2.08
2019-02-02T10:36:38.511Z,-2.08
2019-02-02T10:37:39.019Z,-2.08
2019-02-02T10:38:39.437Z,-2.07
2019-02-02T10:39:39.910Z,-2.08
2019-02-02T10:40:40.381Z,-2.08
2019-02-02T10:41:40.853Z,-2.08
2019-02-02T10:42:41.326Z,-2.09
2019-02-02T10:43:41.798Z,-2.08
2019-02-02T10:44:42.271Z,-2.08
2019-02-02T10:45:42.743Z,-2.08
2019-02-02T10:47:43.688Z,-2.08
2019-02-02T10:48:44.158Z,-2.08
2019-02-02T10:49:44.629Z,-2.08
2019-02-02T10:50:45.102Z,-2.08
2019-02-02T10:51:45.576Z,-2.08
2019-02-02T10:52:46.097Z,-2.08
2019-02-02T10:53:46.518Z,-2.08
2019-02-02T10:54:47.000Z,-2.07
2019-02-02T10:55:47.464Z,-2.08
2019-02-02T10:56:47.934Z,-2.08
2019-02-02T10:57:48.404Z,-2.09
2019-02-02T10:58:48.876Z,-2.07
2019-02-02T10:59:49.347Z,-2.08
2019-02-02T11:00:49.821Z,-2.08
2019-02-02T11:01:51.347Z,-2.07
2019-02-02T11:02:50.766Z,-2.07
2019-02-02T11:03:51.237Z,-2.08
2019-02-02T11:04:53.564Z,-2.08
2019-02-02T11:05:52.198Z,-2.06
2019-02-02T11:06:52.661Z,-2.07
2019-02-02T11:07:54.570Z,-2.07
2019-02-02T11:08:53.600Z,-2.08
2019-02-02T11:09:54.117Z,-2.08
2019-02-02T11:10:54.658Z,-2.08
2019-02-02T11:11:55.049Z,-2.06
2019-02-02T11:12:55.504Z,-2.07
2019-02-02T11:13:56.166Z,-2.08
2019-02-02T11:14:56.554Z,-2.06
2019-02-02T11:15:57.160Z,-2.06
2019-02-02T11:16:57.486Z,-2.07
2019-02-02T11:17:58.073Z,-2.08
2019-02-02T11:18:58.424Z,-2.06
2019-02-02T11:19:58.833Z,-2.08
2019-02-02T11:20:59.321Z,-2.07
2019-02-02T11:21:59.733Z,-2.06
2019-02-02T11:23:00.346Z,-2.08
2019-02-02T11:24:00.676Z,-2.08
2019-02-02T11:25:01.199Z,-2.06
2019-02-02T11:26:01.630Z,-2.06
2019-02-02T11:27:02.358Z,-2.06
2019-02-02T11:28:02.580Z,-2.06
2019-02-02T11:29:03.099Z,-2.06
2019-02-02T11:30:03.569Z,-2.06
2019-02-02T11:31:03.981Z,-2.06
2019-02-02T11:32:04.450Z,-2.07
2019-02-02T11:33:04.928Z,-2.07
2019-02-02T11:34:05.396Z,-2.06
2019-02-02T11:35:05.869Z,-2.07
2019-02-02T11:36:06.341Z,-2.06
2019-02-02T11:37:06.813Z,-2.06
2019-02-02T11:38:07.336Z,-2.07
2019-02-02T11:39:07.763Z,-2.06
2019-02-02T11:40:08.227Z,-2.06
2019-02-02T11:41:08.701Z,-2.05
2019-02-02T11:42:09.172Z,-2.06
2019-02-02T11:43:09.645Z,-2.04
2019-02-02T11:44:10.115Z,-2.05
2019-02-02T11:45:10.589Z,-2.04
2019-02-02T11:46:11.060Z,-2.05
2019-02-02T11:47:11.534Z,-2.04
2019-02-02T11:48:14.905Z,-2.04
2019-02-02T11:49:12.476Z,-2.04
2019-02-02T11:50:12.951Z,-2.04
2019-02-02T11:51:13.421Z,-2.05
2019-02-02T11:52:13.891Z,-2.04
2019-02-02T11:53:14.366Z,-2.04
2019-02-02T11:54:14.836Z,-2.02
2019-02-02T11:55:15.309Z,-2.04
2019-02-02T11:56:15.781Z,-2.04
2019-02-02T11:57:16.255Z,-2.04
2019-02-02T11:58:16.731Z,-2.03
2019-02-02T11:59:17.222Z,-2.04
2019-02-02T12:00:17.695Z,-2.02
2019-02-02T12:01:18.141Z,-2.02
2019-02-02T12:02:18.616Z,-2.04
2019-02-02T12:03:19.086Z,-2.04
2019-02-02T12:04:19.558Z,-2.04
2019-02-02T12:05:20.032Z,-2.02
2019-02-02T12:06:20.503Z,-2.03
2019-02-02T12:07:20.986Z,-2.02
2019-02-02T12:08:21.840Z,-2.02
2019-02-02T12:09:21.919Z,-2.02
2019-02-02T12:10:22.393Z,-2.03
2019-02-02T12:11:22.864Z,-2.02
2019-02-02T12:12:23.335Z,-2.02
2019-02-02T12:13:23.811Z,-2.02
2019-02-02T12:14:24.281Z,-2.02
2019-02-02T12:15:24.752Z,-2.02
2019-02-02T12:16:25.222Z,-2.03
2019-02-02T12:17:25.696Z,-2.02
2019-02-02T12:18:26.169Z,-2.03
2019-02-02T12:19:26.641Z,-2.01
2019-02-02T12:20:27.114Z,-2.02
2019-02-02T12:21:27.590Z,-2.02
2019-02-02T12:22:28.058Z,-2.01
2019-02-02T12:23:28.580Z,-2.01
2019-02-02T12:24:29.001Z,-2.02
2019-02-02T12:25:29.473Z,-2.02
2019-02-02T12:26:29.949Z,-2.02
2019-02-02T12:27:30.759Z,-2.01
2019-02-02T12:28:30.892Z,-2.00
2019-02-02T12:29:31.363Z,-2.02
2019-02-02T12:30:31.901Z,-2.01
2019-02-02T12:31:32.307Z,-2.02
2019-02-02T12:32:32.780Z,-2.00
2019-02-02T12:33:33.251Z,-2.01
2019-02-02T12:34:33.724Z,-2.01
2019-02-02T12:35:34.197Z,-2.02
2019-02-02T12:36:34.669Z,-2.01
2019-02-02T12:37:35.142Z,-2.02
2019-02-02T12:38:35.825Z,-2.01
2019-02-02T12:39:36.086Z,-2.00
2019-02-02T12:40:36.559Z,-2.02
2019-02-02T12:41:37.033Z,-2.02
2019-02-02T12:42:37.503Z,-2.02
2019-02-02T12:43:37.975Z,-2.01
2019-02-02T12:44:38.448Z,-2.03
2019-02-02T12:45:38.919Z,-2.00
2019-02-02T12:46:39.393Z,-2.01
2019-02-02T12:47:39.863Z,-2.02
2019-02-02T12:48:40.335Z,-2.00
2019-02-02T12:49:40.810Z,-2.00
2019-02-02T12:50:41.281Z,-2.00
2019-02-02T12:51:41.752Z,-2.00
2019-02-02T12:52:42.230Z,-2.00
2019-02-02T12:53:42.840Z,-2.00
2019-02-02T12:54:43.169Z,-2.00
2019-02-02T12:55:43.641Z,-2.01
2019-02-02T12:56:44.112Z,-2.00
2019-02-02T12:57:44.584Z,-2.00
2019-02-02T12:58:45.058Z,-1.98
2019-02-02T12:59:45.530Z,-2.00
2019-02-02T13:00:46.002Z,-2.00